createdAt,value
2018-11-02T00:00:16.281Z,76.97
2018-11-02T00:02:47.939Z,76.85
2018-11-02T00:05:19.048Z,76.68
2018-11-02T00:07:50.107Z,76.62
2018-11-02T00:10:21.143Z,76.41
2018-11-02T00:12:52.186Z,76.44
2018-11-02T00:15:23.258Z,76.38
2018-11-02T00:18:00.231Z,76.55
2018-11-02T00:20:31.434Z,76.46
2018-11-02T00:23:02.782Z,76.46
2018-11-02T00:25:34.274Z,76.19
2018-11-02T00:28:05.374Z,76.08
2018-11-02T00:30:36.552Z,76.02
2018-11-02T00:33:07.976Z,75.96
2018-11-02T00:35:39.199Z,75.76
2018-11-02T00:38:12.848Z,75.80
2018-11-02T00:40:43.928Z,75.72
2018-11-02T00:43:15.008Z,75.69
2018-11-02T00:45:46.417Z,75.75
2018-11-02T00:48:17.476Z,75.64
2018-11-02T00:50:48.611Z,75.48
2018-11-02T00:53:20.067Z,75.50
2018-11-02T00:55:51.316Z,75.45
2018-11-02T00:58:22.500Z,75.32
2018-11-02T01:00:53.752Z,75.43
2018-11-02T01:03:24.891Z,75.37
2018-11-02T01:05:56.238Z,75.35
2018-11-02T01:08:27.701Z,75.30
2018-11-02T01:10:58.827Z,75.29
2018-11-02T01:13:29.849Z,75.26
2018-11-02T01:16:00.896Z,75.26
2018-11-02T01:18:33.424Z,75.29
2018-11-02T01:21:04.914Z,75.33
2018-11-02T01:23:36.457Z,75.25
2018-11-02T01:26:12.149Z,75.31
2018-11-02T01:28:46.072Z,75.37
2018-11-02T01:31:17.156Z,75.42
2018-11-02T01:33:51.135Z,75.40
2018-11-02T01:36:23.064Z,75.42
2018-11-02T01:38:54.528Z,75.45
2018-11-02T01:41:27.976Z,75.78
2018-11-02T01:43:59.018Z,75.85
2018-11-02T01:46:32.740Z,75.93
2018-11-02T01:49:03.714Z,75.97
2018-11-02T01:51:35.121Z,75.97
2018-11-02T01:54:06.379Z,76.05
2018-11-02T01:56:37.466Z,76.12
2018-11-02T01:59:08.865Z,76.13
2018-11-02T02:01:44.693Z,75.98
2018-11-02T02:04:16.218Z,76.05
2018-11-02T02:06:47.601Z,75.99
2018-11-02T02:09:18.685Z,76.01
2018-11-02T02:11:49.802Z,76.02
2018-11-02T02:14:20.840Z,76.03
2018-11-02T02:16:52.169Z,76.11
2018-11-02T02:19:23.425Z,76.07
2018-11-02T02:21:54.449Z,76.11
2018-11-02T02:24:25.848Z,76.16
2018-11-02T02:27:13.531Z,75.94
2018-11-02T02:29:44.665Z,75.96
2018-11-02T02:32:15.973Z,75.80
2018-11-02T02:34:47.204Z,75.87
2018-11-02T02:37:18.328Z,75.76
2018-11-02T02:39:52.764Z,75.64
2018-11-02T02:42:24.878Z,75.53
2018-11-02T02:44:55.892Z,75.40
2018-11-02T02:47:26.988Z,75.43
2018-11-02T02:50:01.160Z,75.28
2018-11-02T02:52:32.208Z,75.35
2018-11-02T02:55:05.521Z,75.26
2018-11-02T02:57:40.140Z,75.37
2018-11-02T03:00:15.463Z,75.29
2018-11-02T03:02:47.129Z,75.06
2018-11-02T03:05:18.253Z,74.89
2018-11-02T03:07:52.443Z,74.92
2018-11-02T03:10:24.071Z,74.75
2018-11-02T03:12:55.532Z,74.70
2018-11-02T03:15:27.670Z,74.61
2018-11-02T03:18:06.441Z,74.39
2018-11-02T03:20:37.655Z,74.36
2018-11-02T03:23:08.845Z,74.27
2018-11-02T03:25:40.103Z,74.24
2018-11-02T03:28:11.173Z,73.98
2018-11-02T03:30:44.191Z,73.76
2018-11-02T03:33:15.249Z,73.69
2018-11-02T03:35:46.574Z,73.76
2018-11-02T03:38:18.022Z,73.70
2018-11-02T03:40:49.198Z,73.93
2018-11-02T03:43:20.199Z,73.71
2018-11-02T03:45:54.955Z,73.58
2018-11-02T03:48:26.340Z,73.57
2018-11-02T03:50:59.971Z,72.88
2018-11-02T03:53:30.978Z,72.86
2018-11-02T03:56:02.497Z,72.43
2018-11-02T03:58:33.672Z,72.45
2018-11-02T04:01:04.794Z,72.40
2018-11-02T04:03:35.847Z,72.42
2018-11-02T04:06:08.180Z,72.38
2018-11-02T04:08:39.211Z,72.19
2018-11-02T04:11:15.294Z,72.04
2018-11-02T04:13:52.275Z,72.08
2018-11-02T04:16:25.672Z,72.25
2018-11-02T04:18:56.748Z,72.06
2018-11-02T04:21:36.946Z,72.06
2018-11-02T04:24:08.557Z,72.07
2018-11-02T04:26:40.039Z,72.11
2018-11-02T04:29:15.229Z,72.12
2018-11-02T04:31:46.292Z,72.20
2018-11-02T04:34:17.733Z,72.33
2018-11-02T04:36:48.780Z,72.23
2018-11-02T04:39:26.359Z,72.26
2018-11-02T04:41:59.467Z,72.28
2018-11-02T04:44:30.528Z,72.31
2018-11-02T04:47:07.352Z,72.13
2018-11-02T04:49:38.615Z,72.28
2018-11-02T04:52:09.625Z,72.17
2018-11-02T04:54:43.888Z,72.05
2018-11-02T04:57:17.595Z,71.86
2018-11-02T04:59:50.620Z,71.89
2018-11-02T05:02:22.376Z,71.99
2018-11-02T05:04:53.460Z,71.93
2018-11-02T05:07:24.912Z,71.93
2018-11-02T05:09:57.235Z,71.99
2018-11-02T05:12:28.326Z,71.88
2018-11-02T05:14:59.838Z,71.95
2018-11-02T05:17:31.872Z,71.94
2018-11-02T05:20:02.991Z,72.00
2018-11-02T05:22:34.399Z,71.94
2018-11-02T05:25:05.891Z,71.99
2018-11-02T05:27:39.873Z,72.14
2018-11-02T05:30:11.890Z,72.09
2018-11-02T05:32:42.956Z,72.11
2018-11-02T05:35:17.498Z,72.14
2018-11-02T05:37:48.573Z,72.04
2018-11-02T05:40:19.648Z,72.18
2018-11-02T05:42:51.858Z,72.41
2018-11-02T05:45:25.284Z,72.69
2018-11-02T05:47:56.530Z,73.00
2018-11-02T05:50:27.797Z,73.06
2018-11-02T05:52:59.002Z,73.48
2018-11-02T05:55:30.072Z,74.04
2018-11-02T05:58:01.182Z,74.11
2018-11-02T06:00:32.253Z,74.44
2018-11-02T06:03:03.379Z,74.80
2018-11-02T06:05:36.199Z,75.47
2018-11-02T06:08:07.612Z,75.91
2018-11-02T06:10:43.113Z,76.56
2018-11-02T06:13:14.719Z,77.10
2018-11-02T06:15:46.093Z,77.03
2018-11-02T06:18:17.196Z,76.93
2018-11-02T06:20:48.814Z,77.23
2018-11-02T06:23:19.885Z,76.79
2018-11-02T06:25:50.977Z,76.56
2018-11-02T06:28:22.070Z,76.30
2018-11-02T06:30:54.076Z,76.28
2018-11-02T06:33:26.977Z,76.07
2018-11-02T06:35:58.099Z,75.69
2018-11-02T06:38:29.637Z,75.03
2018-11-02T06:41:00.865Z,75.09
2018-11-02T06:43:32.844Z,75.06
2018-11-02T06:46:06.613Z,74.78
2018-11-02T06:48:37.974Z,74.80
2018-11-02T06:51:09.765Z,74.82
2018-11-02T06:53:55.073Z,74.86
2018-11-02T06:56:26.133Z,74.67
2018-11-02T06:59:00.358Z,74.68
2018-11-02T07:01:35.887Z,74.85
2018-11-02T07:04:07.049Z,75.02
2018-11-02T07:06:38.153Z,74.68
2018-11-02T07:10:08.886Z,74.66
2018-11-02T07:12:46.634Z,74.46
2018-11-02T07:15:18.969Z,74.26
2018-11-02T07:17:51.716Z,73.92
2018-11-02T07:20:26.010Z,73.93
2018-11-02T07:23:07.620Z,73.81
2018-11-02T07:25:38.534Z,73.76
2018-11-02T07:28:11.293Z,73.65
2018-11-02T07:30:43.127Z,73.61
2018-11-02T07:33:19.126Z,73.87
2018-11-02T07:35:50.237Z,73.94
2018-11-02T07:38:21.915Z,74.49
2018-11-02T07:40:53.666Z,75.10
2018-11-02T07:43:25.153Z,75.43
2018-11-02T07:46:01.320Z,75.79
2018-11-02T07:48:32.958Z,75.58
2018-11-02T07:51:07.874Z,75.58
2018-11-02T07:53:43.721Z,75.50
2018-11-02T07:56:14.760Z,75.43
2018-11-02T07:58:45.807Z,75.28
2018-11-02T08:01:17.818Z,75.24
2018-11-02T08:03:53.137Z,75.16
2018-11-02T08:06:25.822Z,75.44
2018-11-02T08:08:58.254Z,74.97
2018-11-02T08:11:29.356Z,75.34
2018-11-02T08:14:01.257Z,75.04
2018-11-02T08:16:32.809Z,75.08
2018-11-02T08:19:03.914Z,74.98
2018-11-02T08:21:35.325Z,74.73
2018-11-02T08:24:06.514Z,74.51
2018-11-02T08:26:37.910Z,74.31
2018-11-02T08:29:08.995Z,74.37
2018-11-02T08:31:40.327Z,74.32
2018-11-02T08:34:11.391Z,74.01
2018-11-02T08:36:42.788Z,73.81
2018-11-02T08:39:14.219Z,73.62
2018-11-02T08:41:45.709Z,73.45
2018-11-02T08:44:16.734Z,73.54
2018-11-02T08:49:21.975Z,73.35
2018-11-02T08:51:53.024Z,72.92
2018-11-02T08:54:24.150Z,73.05
2018-11-02T08:56:55.212Z,72.82
2018-11-02T08:59:26.431Z,72.71
2018-11-02T09:01:57.341Z,72.79
2018-11-02T09:04:28.629Z,72.79
2018-11-02T09:07:03.201Z,72.82
2018-11-02T09:09:34.149Z,72.33
2018-11-02T09:12:05.236Z,71.98
2018-11-02T09:14:36.446Z,71.84
2018-11-02T09:17:08.608Z,71.81
2018-11-02T09:19:39.679Z,71.62
2018-11-02T09:22:10.842Z,71.57
2018-11-02T09:24:41.892Z,71.84
2018-11-02T09:27:13.227Z,71.76
2018-11-02T09:29:45.317Z,71.83
2018-11-02T09:32:16.772Z,71.76
2018-11-02T09:34:47.824Z,71.60
2018-11-02T09:37:20.175Z,71.63
2018-11-02T09:39:51.221Z,71.51
2018-11-02T09:44:52.511Z,71.51
2018-11-02T09:47:23.558Z,71.58
2018-11-02T09:49:54.687Z,71.41
2018-11-02T09:52:26.165Z,71.34
2018-11-02T09:55:01.291Z,70.53
2018-11-02T09:57:32.773Z,70.03
2018-11-02T10:00:03.758Z,70.27
2018-11-02T10:02:34.835Z,69.59
2018-11-02T10:05:06.918Z,68.83
2018-11-02T10:07:39.139Z,68.26
2018-11-02T10:10:11.676Z,68.17
2018-11-02T10:12:44.580Z,68.26
2018-11-02T10:15:16.522Z,68.56
2018-11-02T10:17:47.868Z,68.56
2018-11-02T10:20:19.096Z,68.22
2018-11-02T10:22:50.607Z,67.99
2018-11-02T10:25:21.683Z,67.66
2018-11-02T10:27:53.348Z,67.83
2018-11-02T10:30:24.429Z,67.93
2018-11-02T10:32:57.750Z,67.67
2018-11-02T10:35:29.345Z,68.03
2018-11-02T10:38:01.821Z,67.63
2018-11-02T10:40:35.156Z,67.59
2018-11-02T10:43:09.961Z,67.54
2018-11-02T10:45:46.869Z,67.58
2018-11-02T10:48:17.926Z,68.16
2018-11-02T10:50:54.586Z,67.70
2018-11-02T10:53:26.084Z,67.36
2018-11-02T10:55:57.687Z,67.21
2018-11-02T10:58:28.759Z,67.13
2018-11-02T11:01:17.476Z,67.27
2018-11-02T11:03:48.525Z,67.17
2018-11-02T11:06:19.637Z,67.00
2018-11-02T11:08:51.050Z,67.07
2018-11-02T11:11:22.618Z,66.87
2018-11-02T11:13:53.718Z,67.06
2018-11-02T11:16:25.081Z,67.04
2018-11-02T11:18:56.198Z,67.09
2018-11-02T11:21:30.954Z,67.05
2018-11-02T11:24:01.867Z,66.95
2018-11-02T11:26:32.927Z,66.87
2018-11-02T11:29:03.983Z,66.70
2018-11-02T11:31:35.407Z,66.60
2018-11-02T11:34:07.842Z,66.61
2018-11-02T11:36:39.200Z,66.56
2018-11-02T11:39:16.553Z,66.29
2018-11-02T11:41:47.622Z,66.15
2018-11-02T11:44:19.150Z,66.14
2018-11-02T11:46:50.255Z,65.97
2018-11-02T11:49:22.248Z,64.16
2018-11-02T11:51:53.326Z,64.11
2018-11-02T11:54:26.806Z,63.42
2018-11-02T11:56:59.619Z,63.50
2018-11-02T11:59:43.427Z,63.62
2018-11-02T12:02:15.646Z,62.93
2018-11-02T12:04:48.568Z,62.67
2018-11-02T12:07:21.632Z,62.42
2018-11-02T12:09:52.712Z,61.75
2018-11-02T12:12:23.840Z,61.98
2018-11-02T12:14:55.963Z,62.03
2018-11-02T12:17:27.473Z,62.56
2018-11-02T12:19:59.143Z,63.03
2018-11-02T12:22:30.229Z,63.19
2018-11-02T12:25:01.405Z,63.64
2018-11-02T12:27:32.808Z,63.62
2018-11-02T12:30:05.222Z,63.41
2018-11-02T12:32:37.922Z,63.49
2018-11-02T12:35:10.891Z,63.48
2018-11-02T12:37:42.341Z,63.37
2018-11-02T12:40:15.146Z,63.24
2018-11-02T12:42:47.092Z,63.47
2018-11-02T12:45:20.283Z,63.49
2018-11-02T12:47:54.578Z,63.33
2018-11-02T12:50:27.899Z,62.63
2018-11-02T12:53:00.049Z,59.64
2018-11-02T12:55:31.825Z,58.73
2018-11-02T12:58:07.603Z,58.56
2018-11-02T13:00:39.883Z,58.62
2018-11-02T13:03:12.963Z,57.39
2018-11-02T13:05:45.029Z,57.68
2018-11-02T13:08:17.207Z,57.16
2018-11-02T13:10:48.153Z,55.68
2018-11-02T13:13:19.287Z,56.26
2018-11-02T13:15:51.250Z,55.41
2018-11-02T13:18:22.655Z,55.78
2018-11-02T13:20:57.285Z,55.68
2018-11-02T13:23:28.372Z,56.21
2018-11-02T13:26:00.163Z,55.62
2018-11-02T13:28:31.119Z,56.24
2018-11-02T13:31:05.506Z,56.20
2018-11-02T13:33:40.948Z,56.76
2018-11-02T13:36:12.197Z,57.56
2018-11-02T13:38:43.588Z,57.78
2018-11-02T13:41:15.076Z,57.58
2018-11-02T13:43:46.203Z,57.14
2018-11-02T13:46:21.585Z,56.64
2018-11-02T13:48:54.237Z,56.13
2018-11-02T13:51:26.690Z,56.72
2018-11-02T13:53:59.078Z,56.98
2018-11-02T13:56:31.270Z,56.02
2018-11-02T13:59:03.302Z,56.51
2018-11-02T14:01:35.691Z,55.82
2018-11-02T14:04:06.893Z,55.96
2018-11-02T14:06:37.945Z,56.77
2018-11-02T14:09:09.952Z,56.09
2018-11-02T14:11:41.540Z,55.60
2018-11-02T14:14:12.609Z,55.36
2018-11-02T14:16:43.662Z,54.67
2018-11-02T14:19:17.421Z,54.95
2018-11-02T14:21:48.318Z,55.06
2018-11-02T14:24:19.388Z,55.68
2018-11-02T14:26:50.525Z,56.20
2018-11-02T14:29:23.265Z,56.44
2018-11-02T14:32:00.248Z,56.19
2018-11-02T14:34:35.947Z,55.93
2018-11-02T14:37:07.472Z,56.34
2018-11-02T14:39:39.283Z,56.65
2018-11-02T14:42:10.325Z,56.96
2018-11-02T14:44:41.547Z,57.11
2018-11-02T14:47:12.653Z,56.81
2018-11-02T14:49:44.372Z,57.00
2018-11-02T14:52:15.433Z,56.90
2018-11-02T14:54:47.699Z,56.86
2018-11-02T14:57:24.350Z,56.91
2018-11-02T14:59:55.857Z,57.22
2018-11-02T15:02:26.968Z,56.53
2018-11-02T15:05:02.781Z,56.52
2018-11-02T15:07:33.901Z,56.57
2018-11-02T15:10:06.120Z,56.90
2018-11-02T15:12:37.443Z,57.24
2018-11-02T15:15:09.261Z,57.11
2018-11-02T15:17:46.967Z,56.96
2018-11-02T15:20:18.084Z,56.85
2018-11-02T15:22:49.204Z,56.18
2018-11-02T15:25:23.158Z,55.90
2018-11-02T15:27:57.675Z,55.95
2018-11-02T15:30:37.495Z,56.43
2018-11-02T15:33:12.494Z,56.55
2018-11-02T15:35:43.534Z,55.29
2018-11-02T15:38:16.857Z,54.94
2018-11-02T15:40:48.290Z,54.82
2018-11-02T15:43:19.506Z,55.09
2018-11-02T15:45:56.200Z,55.84
2018-11-02T15:48:35.784Z,54.91
2018-11-02T15:51:09.389Z,54.98
2018-11-02T15:53:40.754Z,55.51
2018-11-02T15:56:24.643Z,55.36
2018-11-02T15:58:55.698Z,55.23
2018-11-02T16:01:26.988Z,55.36
2018-11-02T16:04:04.210Z,56.07
2018-11-02T16:06:40.636Z,56.25
2018-11-02T16:09:18.315Z,56.60
2018-11-02T16:11:49.363Z,56.50
2018-11-02T16:14:20.539Z,57.22
2018-11-02T16:16:51.504Z,57.61
2018-11-02T16:19:22.521Z,58.25
2018-11-02T16:21:53.545Z,58.91
2018-11-02T16:24:24.592Z,59.38
2018-11-02T16:26:56.024Z,59.70
2018-11-02T16:29:27.082Z,60.05
2018-11-02T16:32:06.509Z,60.54
2018-11-02T16:34:37.670Z,61.00
2018-11-02T16:37:08.720Z,61.06
2018-11-02T16:39:39.773Z,61.27
2018-11-02T16:42:10.841Z,61.51
2018-11-02T16:44:42.327Z,61.72
2018-11-02T16:47:13.386Z,61.99
2018-11-02T16:49:44.455Z,62.06
2018-11-02T16:52:15.513Z,62.05
2018-11-02T16:54:46.677Z,62.15
2018-11-02T16:57:19.178Z,62.14
2018-11-02T16:59:50.596Z,62.21
2018-11-02T17:02:21.700Z,62.66
2018-11-02T17:04:53.170Z,62.88
2018-11-02T17:07:24.181Z,63.08
2018-11-02T17:09:55.222Z,63.21
2018-11-02T17:12:26.410Z,63.33
2018-11-02T17:14:57.430Z,63.35
2018-11-02T17:17:28.766Z,63.39
2018-11-02T17:19:59.991Z,63.50
2018-11-02T17:22:31.643Z,63.46
2018-11-02T17:25:03.086Z,63.34
2018-11-02T17:27:34.159Z,63.25
2018-11-02T17:30:05.796Z,63.31
2018-11-02T17:32:37.175Z,63.19
2018-11-02T17:35:09.919Z,63.16
2018-11-02T17:37:49.152Z,63.09
2018-11-02T17:40:21.440Z,62.97
2018-11-02T17:42:53.928Z,63.08
2018-11-02T17:45:25.792Z,63.15
2018-11-02T17:47:58.059Z,63.11
2018-11-02T17:50:29.398Z,63.07
2018-11-02T17:53:00.444Z,63.05
2018-11-02T17:55:31.453Z,62.97
2018-11-02T17:58:02.553Z,62.97
2018-11-02T18:00:34.748Z,63.03
2018-11-02T18:03:06.109Z,63.05
2018-11-02T18:05:37.163Z,63.16
2018-11-02T18:08:08.268Z,63.57
2018-11-02T18:10:39.716Z,63.98
2018-11-02T18:13:10.776Z,64.46
2018-11-02T18:15:41.871Z,64.72
2018-11-02T18:18:13.076Z,64.68
2018-11-02T18:20:44.169Z,64.71
2018-11-02T18:23:15.548Z,64.88
2018-11-02T18:25:46.616Z,65.08
2018-11-02T18:28:18.209Z,65.33
2018-11-02T18:30:49.635Z,65.56
2018-11-02T18:33:20.788Z,65.68
2018-11-02T18:35:52.121Z,65.76
2018-11-02T18:38:23.177Z,65.89
2018-11-02T18:40:55.178Z,65.91
2018-11-02T18:43:28.353Z,66.04
2018-11-02T18:46:05.872Z,66.16
2018-11-02T18:48:40.454Z,66.24
2018-11-02T18:51:11.572Z,66.54
2018-11-02T18:53:47.022Z,66.68
2018-11-02T18:56:23.453Z,66.71
2018-11-02T18:58:51.836Z,66.66
2018-11-02T19:01:22.977Z,66.57
2018-11-02T19:03:54.375Z,66.50
2018-11-02T19:06:27.285Z,66.40
2018-11-02T19:09:00.634Z,66.27
2018-11-02T19:11:31.948Z,66.20
2018-11-02T19:14:03.017Z,66.61
2018-11-02T19:16:34.428Z,66.89
2018-11-02T19:19:05.845Z,67.07
2018-11-02T19:21:37.121Z,67.20
2018-11-02T19:24:08.594Z,67.28
2018-11-02T19:26:40.067Z,67.43
2018-11-02T19:29:11.266Z,67.61
2018-11-02T19:31:45.545Z,67.90
2018-11-02T19:34:16.901Z,68.05
2018-11-02T19:36:47.925Z,68.33
2018-11-02T19:39:19.159Z,68.37
2018-11-02T19:41:50.750Z,68.42
2018-11-02T19:44:22.911Z,68.40
2018-11-02T19:46:57.331Z,68.25
2018-11-02T19:49:28.607Z,68.05
2018-11-02T19:51:59.922Z,67.90
2018-11-02T19:54:32.184Z,67.74
2018-11-02T19:57:03.965Z,67.73
2018-11-02T19:59:35.124Z,67.78
2018-11-02T20:02:06.775Z,68.19
2018-11-02T20:04:38.195Z,68.40
2018-11-02T20:07:12.443Z,68.41
2018-11-02T20:09:43.527Z,68.27
2018-11-02T20:12:14.666Z,68.27
2018-11-02T20:14:46.143Z,68.21
2018-11-02T20:17:17.197Z,68.21
2018-11-02T20:19:48.340Z,68.20
2018-11-02T20:22:19.448Z,68.13
2018-11-02T20:24:51.186Z,68.11
2018-11-02T20:27:23.031Z,68.11
2018-11-02T20:29:54.108Z,68.14
2018-11-02T20:32:28.045Z,68.15
2018-11-02T20:35:01.787Z,68.32
2018-11-02T20:37:35.839Z,68.48
2018-11-02T20:40:11.406Z,68.71
2018-11-02T20:42:46.012Z,68.95
2018-11-02T20:45:22.708Z,69.13
2018-11-02T20:47:57.028Z,69.40
2018-11-02T20:50:31.128Z,69.60
2018-11-02T20:53:05.154Z,69.47
2018-11-02T20:55:38.584Z,69.48
2018-11-02T20:58:11.792Z,69.38
2018-11-02T21:00:52.555Z,69.50
2018-11-02T21:03:29.108Z,69.64
2018-11-02T21:06:02.829Z,69.79
2018-11-02T21:08:39.179Z,70.07
2018-11-02T21:11:12.756Z,70.34
2018-11-02T21:13:46.472Z,70.49
2018-11-02T21:16:19.977Z,70.64
2018-11-02T21:18:53.330Z,70.77
2018-11-02T21:21:27.388Z,70.89
2018-11-02T21:24:05.985Z,70.90
2018-11-02T21:26:40.620Z,70.93
2018-11-02T21:29:17.284Z,70.83
2018-11-02T21:31:52.022Z,70.77
2018-11-02T21:34:27.069Z,70.71
2018-11-02T21:37:00.606Z,70.61
2018-11-02T21:39:33.059Z,70.43
2018-11-02T21:42:05.913Z,70.25
2018-11-02T21:44:38.557Z,70.29
2018-11-02T21:47:12.427Z,70.13
2018-11-02T21:49:45.911Z,70.20
2018-11-02T21:52:24.622Z,70.30
2018-11-02T21:54:58.320Z,70.30
2018-11-02T21:57:31.347Z,70.41
2018-11-02T22:00:03.253Z,70.51
2018-11-02T22:02:37.442Z,70.52
2018-11-02T22:05:12.663Z,70.45
2018-11-02T22:07:47.073Z,70.38
2018-11-02T22:10:19.329Z,70.42
2018-11-02T22:12:52.016Z,70.42
2018-11-02T22:15:23.182Z,70.51
2018-11-02T22:17:59.272Z,70.50
2018-11-02T22:20:31.825Z,70.51
2018-11-02T22:23:03.041Z,70.58
2018-11-02T22:25:34.170Z,70.57
2018-11-02T22:28:05.369Z,70.62
2018-11-02T22:30:36.536Z,70.63
2018-11-02T22:33:07.583Z,70.52
2018-11-02T22:35:38.641Z,70.47
2018-11-02T22:38:11.589Z,70.55
2018-11-02T22:40:42.808Z,70.62
2018-11-02T22:43:17.238Z,70.83
2018-11-02T22:45:48.207Z,70.86
2018-11-02T22:48:26.237Z,70.87
2018-11-02T22:50:58.033Z,70.99
2018-11-02T22:53:29.357Z,71.16
2018-11-02T22:56:00.518Z,71.43
2018-11-02T22:58:32.368Z,71.64
2018-11-02T23:01:20.982Z,71.62
2018-11-02T23:03:52.024Z,71.80
2018-11-02T23:06:23.170Z,71.96
2018-11-02T23:08:54.905Z,72.17
2018-11-02T23:11:26.024Z,72.18
2018-11-02T23:13:57.208Z,72.33
2018-11-02T23:16:28.603Z,72.68
2018-11-02T23:18:59.932Z,73.06
2018-11-02T23:21:30.979Z,73.19
2018-11-02T23:24:02.370Z,73.12
2018-11-02T23:26:33.825Z,73.13
2018-11-02T23:29:04.891Z,73.14
2018-11-02T23:31:37.198Z,73.29
2018-11-02T23:34:08.557Z,73.36
2018-11-02T23:36:40.301Z,73.37
2018-11-02T23:39:11.737Z,73.34
2018-11-02T23:41:42.766Z,73.40
2018-11-02T23:44:14.267Z,73.43
2018-11-02T23:46:45.286Z,73.37
2018-11-02T23:49:16.446Z,73.26
2018-11-02T23:51:48.193Z,72.98
2018-11-02T23:54:25.667Z,72.80
2018-11-02T23:56:56.995Z,72.71
2018-11-02T23:59:28.059Z,72.68
